Time;durP1;ratioP1;P1;durP2;ratioP2;P2;SDS_P1;SDS_P2;PMS_P1;PMS_P2;Temp;Humidity;BMP_temperature;BMP_pressure;BME280_temperature;BME280_humidity;BME280_pressure;Samples;Min_cycle;Max_cycle;Signal;HPM_P1;HPM_P2
2023/04/12 00:01:35;;;;;;;9.00;5.20;;;;;;;9.12;100.00;98986.84;106857;1283;22527;-67
2023/04/12 00:04:03;;;;;;;9.50;5.60;;;;;;;9.12;100.00;98986.24;106931;1283;22582;-67
2023/04/12 00:06:32;;;;;;;7.40;5.40;;;;;;;9.09;100.00;98985.23;109798;1283;23082;-68
2023/04/12 00:09:02;;;;;;;10.50;5.80;;;;;;;9.07;100.00;98981.71;109835;1282;22995;-68
2023/04/12 00:11:31;;;;;;;10.30;6.00;;;;;;;9.10;100.00;98983.65;109847;1283;23000;-68
2023/04/12 00:13:59;;;;;;;8.40;5.80;;;;;;;9.08;100.00;98981.42;109861;1283;22177;-68
2023/04/12 00:16:32;;;;;;;11.00;6.40;;;;;;;9.07;100.00;98981.39;109861;1282;22209;-68
2023/04/12 00:19:02;;;;;;;9.70;5.70;;;;;;;9.09;100.00;98980.08;109909;1281;22215;-68
2023/04/12 00:21:31;;;;;;;10.00;6.50;;;;;;;9.08;100.00;98980.73;109828;1282;22343;-69
2023/04/12 00:24:00;;;;;;;10.00;6.30;;;;;;;9.03;100.00;98976.15;109821;1282;22342;-68
2023/04/12 00:26:28;;;;;;;11.10;6.60;;;;;;;9.00;100.00;98973.44;109757;1283;22365;-68
2023/04/12 00:28:56;;;;;;;12.30;6.20;;;;;;;9.02;100.00;98974.42;109836;1282;22358;-68
2023/04/12 00:31:25;;;;;;;12.80;6.50;;;;;;;8.96;100.00;98972.87;109816;1281;22293;-67
2023/04/12 00:33:54;;;;;;;12.70;6.10;;;;;;;8.98;100.00;98974.44;109836;1283;22209;-68
2023/04/12 00:36:25;;;;;;;11.40;6.20;;;;;;;9.01;100.00;98978.10;109771;1283;22202;-68
2023/04/12 00:38:54;;;;;;;8.40;6.40;;;;;;;8.97;100.00;98973.89;109808;1283;22203;-68
2023/04/12 00:41:23;;;;;;;9.30;6.10;;;;;;;8.93;100.00;98969.23;109830;1278;22399;-68
2023/04/12 00:43:51;;;;;;;11.00;6.50;;;;;;;8.93;100.00;98964.67;109825;1283;22329;-68
2023/04/12 00:46:19;;;;;;;9.70;7.00;;;;;;;8.90;100.00;98965.67;109799;1283;22194;-68
2023/04/12 00:48:48;;;;;;;9.40;6.20;;;;;;;8.89;100.00;98964.34;109768;1283;22521;-68
2023/04/12 00:51:16;;;;;;;11.70;7.10;;;;;;;8.92;100.00;98962.62;109806;1282;22355;-68
2023/04/12 00:53:45;;;;;;;11.40;7.60;;;;;;;8.91;100.00;98962.04;109854;1282;24577;-67
2023/04/12 00:56:16;;;;;;;10.60;7.10;;;;;;;8.83;100.00;98959.42;109811;1277;22337;-67
2023/04/12 00:58:45;;;;;;;11.80;7.10;;;;;;;8.85;100.00;98962.23;109789;1276;22420;-68
2023/04/12 01:01:18;;;;;;;13.00;8.40;;;;;;;8.84;100.00;98964.90;109827;1282;22285;-68
2023/04/12 01:03:49;;;;;;;13.50;8.40;;;;;;;8.80;100.00;98965.19;109748;1283;22508;-67
2023/04/12 01:06:28;;;;;;;12.80;8.30;;;;;;;8.78;100.00;98960.37;109771;1282;24041;-67
2023/04/12 01:09:11;;;;;;;15.70;8.80;;;;;;;8.78;100.00;98960.36;109819;1278;22463;-67
2023/04/12 01:11:55;;;;;;;13.40;8.00;;;;;;;8.73;100.00;98961.27;109704;1282;22502;-67
2023/04/12 01:14:43;;;;;;;10.80;7.70;;;;;;;8.73;100.00;98958.17;109757;1283;23158;-67
2023/04/12 01:17:13;;;;;;;13.40;9.00;;;;;;;8.74;100.00;98957.85;107197;1282;22610;-66
2023/04/12 01:19:53;;;;;;;12.50;8.60;;;;;;;8.68;100.00;98952.42;106935;1283;26511;-67
2023/04/12 01:22:24;;;;;;;13.40;9.00;;;;;;;8.64;100.00;98948.11;106863;1283;25319;-67
2023/04/12 01:25:31;;;;;;;12.50;8.50;;;;;;;8.63;100.00;98944.16;106979;1283;22583;-67
2023/04/12 01:28:09;;;;;;;14.80;9.00;;;;;;;8.63;100.00;98941.73;106751;1281;24390;-67
2023/04/12 01:30:37;;;;;;;13.50;9.20;;;;;;;8.57;100.00;98937.79;106796;1283;22536;-67
2023/04/12 01:33:06;;;;;;;14.10;9.00;;;;;;;8.54;100.00;98931.01;107044;1284;25340;-66
2023/04/12 01:35:37;;;;;;;13.00;9.10;;;;;;;8.54;100.00;98925.91;106932;1283;24390;-66
2023/04/12 01:38:06;;;;;;;14.80;9.40;;;;;;;8.49;100.00;98921.54;109677;1283;23020;-67
2023/04/12 01:40:35;;;;;;;11.90;8.90;;;;;;;8.50;100.00;98920.65;109777;1283;22229;-67
2023/04/12 01:43:08;;;;;;;13.20;8.70;;;;;;;8.49;100.00;98915.40;109754;1282;22313;-67
2023/04/12 01:45:36;;;;;;;14.20;9.10;;;;;;;8.48;100.00;98910.73;109835;1282;23004;-67
2023/04/12 01:48:10;;;;;;;15.70;9.70;;;;;;;8.45;100.00;98909.73;109783;1283;22288;-67
2023/04/12 01:50:57;;;;;;;13.80;9.10;;;;;;;8.46;100.00;98907.17;109779;1283;22610;-66
2023/04/12 01:53:46;;;;;;;14.80;10.40;;;;;;;8.45;100.00;98903.77;109728;1283;22948;-66
2023/04/12 01:56:16;;;;;;;12.90;9.30;;;;;;;8.38;100.00;98899.83;109813;1283;22239;-67
2023/04/12 01:58:46;;;;;;;15.60;9.30;;;;;;;8.36;100.00;98895.01;109783;1283;22456;-67
2023/04/12 02:01:14;;;;;;;12.80;10.00;;;;;;;8.39;100.00;98898.86;108378;1283;26088;-66
2023/04/12 02:03:44;;;;;;;15.10;9.90;;;;;;;8.38;100.00;98893.80;106809;1283;25329;-66
2023/04/12 02:06:13;;;;;;;11.90;9.50;;;;;;;8.37;100.00;98896.08;106748;1283;25358;-65
2023/04/12 02:08:47;;;;;;;16.10;9.80;;;;;;;8.34;100.00;98891.77;106782;1282;25416;-65
2023/04/12 02:11:15;;;;;;;15.00;10.30;;;;;;;8.29;100.00;98885.42;107054;1277;22546;-66
2023/04/12 02:13:44;;;;;;;14.30;9.80;;;;;;;8.22;100.00;98878.88;107034;1276;23642;-66
2023/04/12 02:16:13;;;;;;;15.10;9.60;;;;;;;8.20;100.00;98875.52;106963;1282;25332;-67
2023/04/12 02:18:41;;;;;;;14.50;9.20;;;;;;;8.15;100.00;98875.60;106981;1284;22698;-66
2023/04/12 02:21:11;;;;;;;15.30;9.30;;;;;;;8.11;100.00;98878.21;106897;1283;22575;-66
2023/04/12 02:23:42;;;;;;;12.70;9.50;;;;;;;8.08;100.00;98876.27;106635;1281;22533;-66
2023/04/12 02:26:11;;;;;;;13.90;9.70;;;;;;;8.07;100.00;98875.03;107005;1283;22565;-67
2023/04/12 02:28:40;;;;;;;15.20;10.10;;;;;;;8.05;100.00;98872.27;107377;1280;24390;-66
2023/04/12 02:31:15;;;;;;;13.60;9.10;;;;;;;8.04;100.00;98873.30;107070;1277;25527;-66
2023/04/12 02:33:46;;;;;;;14.00;9.50;;;;;;;8.00;100.00;98873.09;107090;1282;22554;-67
2023/04/12 02:36:14;;;;;;;18.70;9.50;;;;;;;8.00;100.00;98873.30;106943;1283;25398;-66
2023/04/12 02:38:43;;;;;;;13.00;8.90;;;;;;;8.03;100.00;98872.70;106897;1282;23334;-66
2023/04/12 02:41:18;;;;;;;14.70;9.60;;;;;;;8.03;100.00;98871.25;106940;1283;25322;-66
2023/04/12 02:43:47;;;;;;;12.00;9.20;;;;;;;7.99;100.00;98870.00;109795;1281;22396;-66
2023/04/12 02:46:18;;;;;;;13.90;9.00;;;;;;;7.97;100.00;98873.59;109839;1283;22414;-66
2023/04/12 02:48:49;;;;;;;13.00;8.70;;;;;;;8.01;100.00;98869.30;109835;1283;22462;-66
2023/04/12 02:51:18;;;;;;;12.20;9.10;;;;;;;8.04;100.00;98870.96;109774;1282;23209;-66
2023/04/12 02:53:49;;;;;;;13.90;8.90;;;;;;;8.05;100.00;98869.27;109752;1283;22318;-66
2023/04/12 02:56:23;;;;;;;12.60;8.90;;;;;;;8.05;100.00;98872.70;109850;1282;22471;-66
2023/04/12 02:58:58;;;;;;;14.50;9.60;;;;;;;8.08;100.00;98875.17;109851;1281;23005;-67
2023/04/12 03:01:38;;;;;;;12.50;9.80;;;;;;;8.08;100.00;98867.92;109817;1282;23012;-67
2023/04/12 03:04:18;;;;;;;13.00;9.30;;;;;;;8.07;100.00;98866.14;109854;1282;22754;-67
2023/04/12 03:06:52;;;;;;;13.80;9.40;;;;;;;8.06;100.00;98863.05;109837;1283;22889;-66
2023/04/12 03:09:31;;;;;;;12.60;9.10;;;;;;;8.03;100.00;98869.83;109829;1282;22225;-67
2023/04/12 03:11:59;;;;;;;13.50;9.40;;;;;;;8.02;100.00;98865.27;109839;1282;22289;-67
2023/04/12 03:14:36;;;;;;;11.90;9.50;;;;;;;8.04;100.00;98864.67;109809;1283;22841;-67
2023/04/12 03:17:05;;;;;;;12.80;9.40;;;;;;;7.99;100.00;98863.50;109860;1283;22397;-67
2023/04/12 03:19:36;;;;;;;12.80;8.30;;;;;;;7.99;100.00;98864.32;109812;1283;22226;-67
2023/04/12 03:22:06;;;;;;;11.00;8.80;;;;;;;8.01;100.00;98860.57;109886;1282;22975;-67
2023/04/12 03:24:37;;;;;;;12.50;8.70;;;;;;;8.01;100.00;98862.57;109999;1280;22268;-67
2023/04/12 03:27:07;;;;;;;14.00;8.70;;;;;;;8.00;100.00;98861.95;110042;1279;22986;-67
2023/04/12 03:29:37;;;;;;;13.50;7.80;;;;;;;8.01;100.00;98863.81;110060;1279;22638;-66
2023/04/12 03:32:05;;;;;;;10.10;8.20;;;;;;;8.06;100.00;98863.87;110038;1278;22332;-67
2023/04/12 03:34:34;;;;;;;13.80;8.90;;;;;;;8.09;100.00;98860.77;110038;1279;22180;-66
2023/04/12 03:37:08;;;;;;;10.60;8.60;;;;;;;8.10;100.00;98853.77;109959;1279;23251;-67
2023/04/12 03:39:39;;;;;;;11.70;8.30;;;;;;;8.11;100.00;98856.14;110082;1279;22266;-67
2023/04/12 03:42:08;;;;;;;13.20;8.60;;;;;;;8.12;100.00;98853.04;109961;1279;22192;-67
2023/04/12 03:44:53;;;;;;;12.60;8.60;;;;;;;8.12;100.00;98852.56;110083;1279;22342;-67
2023/04/12 03:47:27;;;;;;;12.70;8.40;;;;;;;8.13;100.00;98854.39;109971;1279;22310;-67
2023/04/12 03:49:56;;;;;;;12.00;8.50;;;;;;;8.14;100.00;98854.17;109989;1278;22360;-67
2023/04/12 03:52:39;;;;;;;11.60;7.70;;;;;;;8.13;100.00;98853.92;109996;1279;23192;-68
2023/04/12 03:55:08;;;;;;;12.50;8.50;;;;;;;8.10;100.00;98856.59;109921;1280;22291;-67
2023/04/12 03:57:36;;;;;;;12.30;8.40;;;;;;;8.11;100.00;98857.92;107680;1279;25954;-67
2023/04/12 04:00:07;;;;;;;13.50;8.10;;;;;;;8.11;100.00;98855.81;107162;1277;24211;-66
2023/04/12 04:03:07;;;;;;;11.30;9.00;;;;;;;8.10;100.00;98856.96;107986;1276;25340;-66
2023/04/12 04:05:46;;;;;;;12.30;8.50;;;;;;;8.09;100.00;98852.14;107378;1280;22545;-66
2023/04/12 04:08:15;;;;;;;11.90;8.30;;;;;;;8.09;100.00;98855.88;107396;1279;25403;-66
2023/04/12 04:10:50;;;;;;;11.40;7.90;;;;;;;8.08;100.00;98852.18;107175;1277;24391;-65
2023/04/12 04:13:32;;;;;;;12.90;8.80;;;;;;;8.07;100.00;98853.13;107152;1280;24287;-66
2023/04/12 04:16:06;;;;;;;13.90;8.10;;;;;;;8.04;100.00;98848.37;107258;1279;22538;-66
2023/04/12 04:18:34;;;;;;;13.10;8.80;;;;;;;8.02;100.00;98853.14;109897;1279;22218;-67
2023/04/12 04:21:08;;;;;;;10.10;8.20;;;;;;;7.99;100.00;98853.10;109902;1280;22195;-67
2023/04/12 04:23:43;;;;;;;11.40;8.10;;;;;;;7.99;100.00;98850.81;110026;1277;22951;-67
2023/04/12 04:26:19;;;;;;;16.50;9.10;;;;;;;7.98;100.00;98847.23;110018;1276;22281;-67
2023/04/12 04:29:00;;;;;;;12.40;8.10;;;;;;;7.99;100.00;98848.55;109941;1279;23006;-67
2023/04/12 04:31:33;;;;;;;11.60;8.30;;;;;;;7.98;100.00;98852.77;109991;1279;22575;-66
2023/04/12 04:34:04;;;;;;;12.60;8.80;;;;;;;7.97;100.00;98849.52;109965;1279;22514;-67
2023/04/12 04:36:36;;;;;;;12.10;8.70;;;;;;;7.98;100.00;98851.04;108763;1279;22534;-66
2023/04/12 04:39:14;;;;;;;11.60;8.40;;;;;;;8.01;100.00;98851.68;107245;1273;25352;-66
2023/04/12 04:41:45;;;;;;;12.60;7.80;;;;;;;8.03;100.00;98855.73;107646;1279;22530;-67
2023/04/12 04:44:20;;;;;;;12.50;8.30;;;;;;;8.00;100.00;98853.63;107214;1271;22660;-66
2023/04/12 04:46:53;;;;;;;10.30;8.30;;;;;;;7.98;100.00;98850.38;107285;1279;22554;-67
2023/04/12 04:49:25;;;;;;;11.70;8.90;;;;;;;7.96;100.00;98854.52;107343;1274;25275;-66
2023/04/12 04:51:57;;;;;;;11.80;8.00;;;;;;;7.95;100.00;98856.73;107702;1279;25378;-66
2023/04/12 04:54:25;;;;;;;9.80;7.60;;;;;;;7.95;100.00;98853.05;107029;1277;25568;-66
2023/04/12 04:56:55;;;;;;;11.20;8.30;;;;;;;7.94;100.00;98851.11;107276;1278;25412;-66
2023/04/12 04:59:23;;;;;;;10.20;7.40;;;;;;;7.93;100.00;98853.73;107245;1274;22589;-66
2023/04/12 05:01:52;;;;;;;10.90;7.90;;;;;;;7.92;100.00;98853.77;107329;1279;26509;-66
2023/04/12 05:04:22;;;;;;;11.30;8.20;;;;;;;7.94;100.00;98852.84;107372;1279;26159;-66
2023/04/12 05:06:52;;;;;;;10.20;8.00;;;;;;;7.93;100.00;98853.92;107327;1279;23589;-66
2023/04/12 05:09:22;;;;;;;10.30;7.80;;;;;;;7.91;100.00;98850.18;107315;1279;22605;-67
2023/04/12 05:12:02;;;;;;;9.90;7.70;;;;;;;7.91;100.00;98853.39;107210;1279;23490;-66
2023/04/12 05:14:32;;;;;;;11.40;8.00;;;;;;;7.91;100.00;98851.65;107180;1276;22537;-66
2023/04/12 05:17:14;;;;;;;12.10;7.80;;;;;;;7.92;100.00;98850.56;107158;1275;22571;-66
2023/04/12 05:19:45;;;;;;;8.70;7.20;;;;;;;7.92;100.00;98844.45;109837;1277;22203;-67
2023/04/12 05:22:21;;;;;;;11.80;7.50;;;;;;;7.93;100.00;98844.98;110027;1278;23145;-67
2023/04/12 05:24:49;;;;;;;11.50;7.20;;;;;;;7.95;100.00;98842.80;109996;1279;23026;-67
2023/04/12 05:27:17;;;;;;;9.30;7.40;;;;;;;7.99;100.00;98843.77;110064;1279;22555;-66
2023/04/12 05:29:48;;;;;;;10.10;7.20;;;;;;;7.99;100.00;98843.08;109989;1279;23091;-66
2023/04/12 05:32:20;;;;;;;10.70;7.00;;;;;;;8.01;100.00;98847.28;110069;1279;22207;-66
2023/04/12 05:34:49;;;;;;;8.80;6.50;;;;;;;8.04;100.00;98844.73;109986;1278;22957;-66
2023/04/12 05:37:17;;;;;;;8.80;6.40;;;;;;;8.06;100.00;98840.38;110016;1278;22217;-67
2023/04/12 05:39:46;;;;;;;7.70;5.90;;;;;;;8.08;100.00;98840.54;109985;1274;22383;-66
2023/04/12 05:42:17;;;;;;;9.20;6.40;;;;;;;8.09;100.00;98834.30;110050;1279;22821;-67
2023/04/12 05:44:47;;;;;;;8.40;6.20;;;;;;;8.11;100.00;98834.52;109993;1279;22191;-66
2023/04/12 05:47:17;;;;;;;7.60;6.20;;;;;;;8.12;100.00;98834.61;109931;1279;22212;-67
2023/04/12 05:49:46;;;;;;;8.40;6.20;;;;;;;8.13;100.00;98832.98;110019;1279;23071;-66
2023/04/12 05:52:20;;;;;;;9.20;5.80;;;;;;;8.15;100.00;98834.23;110087;1278;22411;-67
2023/04/12 05:54:51;;;;;;;6.70;5.30;;;;;;;8.14;100.00;98835.64;110012;1273;22232;-66
2023/04/12 05:57:20;;;;;;;9.40;5.50;;;;;;;8.13;100.00;98832.55;109879;1279;22405;-66
2023/04/12 05:59:49;;;;;;;7.30;5.40;;;;;;;8.14;100.00;98830.05;109875;1278;22387;-67
2023/04/12 06:02:18;;;;;;;7.10;5.50;;;;;;;8.17;100.00;98829.06;109892;1278;22229;-66
2023/04/12 06:04:48;;;;;;;7.00;5.10;;;;;;;8.18;100.00;98826.56;109979;1279;22171;-66
2023/04/12 06:07:20;;;;;;;7.10;5.10;;;;;;;8.22;100.00;98827.73;109985;1278;22405;-66
2023/04/12 06:09:48;;;;;;;7.80;4.80;;;;;;;8.26;100.00;98825.02;109952;1273;22491;-67
2023/04/12 06:12:17;;;;;;;6.30;4.70;;;;;;;8.29;100.00;98826.43;109988;1278;22544;-67
2023/04/12 06:14:46;;;;;;;6.00;4.70;;;;;;;8.34;100.00;98824.95;110023;1276;22212;-67
2023/04/12 06:17:15;;;;;;;6.00;4.50;;;;;;;8.38;100.00;98823.02;109866;1280;22885;-67
2023/04/12 06:19:44;;;;;;;5.70;4.40;;;;;;;8.39;100.00;98824.41;109947;1279;22474;-67
2023/04/12 06:22:12;;;;;;;6.20;4.40;;;;;;;8.41;100.00;98819.86;109944;1280;22957;-67
2023/04/12 06:24:42;;;;;;;7.20;4.60;;;;;;;8.41;100.00;98815.96;109927;1279;23042;-66
2023/04/12 06:27:11;;;;;;;7.10;4.90;;;;;;;8.43;100.00;98815.73;109914;1279;22201;-67
2023/04/12 06:29:43;;;;;;;5.80;4.50;;;;;;;8.46;100.00;98817.50;109972;1279;22328;-67
2023/04/12 06:32:12;;;;;;;6.80;4.60;;;;;;;8.48;100.00;98816.63;109956;1279;22980;-66
2023/04/12 06:37:41;;;;;;;5.70;4.30;;;;;;;8.58;100.00;98819.39;103152;1308;545066;-63
2023/04/12 06:40:11;;;;;;;5.70;3.90;;;;;;;8.58;100.00;98811.41;109239;1290;24082;-65
2023/04/12 06:42:40;;;;;;;6.60;4.10;;;;;;;8.60;100.00;98811.77;109101;1287;22276;-63
2023/04/12 06:45:10;;;;;;;5.40;3.90;;;;;;;8.60;100.00;98809.02;109222;1292;22423;-66
2023/04/12 06:47:39;;;;;;;5.10;3.70;;;;;;;8.60;100.00;98807.81;109732;1284;22381;-65
2023/04/12 06:50:09;;;;;;;5.20;4.20;;;;;;;8.61;100.00;98806.95;109714;1283;22871;-65
2023/04/12 06:52:38;;;;;;;6.50;3.80;;;;;;;8.63;100.00;98804.80;109498;1277;22217;-65
2023/04/12 06:55:07;;;;;;;5.20;3.50;;;;;;;8.69;100.00;98804.98;109827;1276;23049;-65
2023/04/12 06:57:36;;;;;;;5.50;3.50;;;;;;;8.75;100.00;98804.58;109817;1274;22311;-65
2023/04/12 07:00:10;;;;;;;6.50;3.60;;;;;;;8.74;100.00;98803.87;109876;1277;22372;-65
2023/04/12 07:02:39;;;;;;;4.20;3.00;;;;;;;8.78;100.00;98801.61;109908;1280;22322;-66
2023/04/12 07:05:07;;;;;;;3.90;3.20;;;;;;;8.81;100.00;98803.02;109840;1280;22443;-66
2023/04/12 07:07:38;;;;;;;4.60;3.40;;;;;;;8.84;100.00;98797.23;109817;1275;23139;-65
2023/04/12 07:10:07;;;;;;;5.10;3.20;;;;;;;8.86;100.00;98796.72;109795;1280;23221;-65
2023/04/12 07:12:35;;;;;;;6.40;3.30;;;;;;;8.87;100.00;98797.98;109798;1277;22352;-66
2023/04/12 07:15:06;;;;;;;4.70;3.30;;;;;;;8.91;100.00;98794.56;109790;1281;22333;-67
2023/04/12 07:17:36;;;;;;;4.60;3.00;;;;;;;8.94;100.00;98794.60;109452;1276;22877;-66
2023/04/12 07:20:05;;;;;;;4.50;3.30;;;;;;;8.96;100.00;98793.92;107376;1276;25463;-64
2023/04/12 07:22:42;;;;;;;5.50;3.00;;;;;;;8.98;100.00;98796.74;107369;1277;23419;-65
2023/04/12 07:25:10;;;;;;;4.60;3.50;;;;;;;9.00;100.00;98794.44;107160;1281;22976;-66
2023/04/12 07:27:39;;;;;;;6.60;3.30;;;;;;;9.03;100.00;98790.85;107050;1280;24393;-67
2023/04/12 07:30:09;;;;;;;7.30;3.20;;;;;;;8.97;100.00;98786.77;106992;1281;23521;-66
2023/04/12 07:32:39;;;;;;;5.90;3.30;;;;;;;8.96;100.00;98785.67;107100;1281;25385;-66
2023/04/12 07:35:13;;;;;;;5.10;3.20;;;;;;;8.97;100.00;98784.26;107373;1275;23448;-66
2023/04/12 07:37:43;;;;;;;5.60;3.20;;;;;;;8.97;100.00;98786.70;107091;1277;23401;-65
2023/04/12 07:40:11;;;;;;;4.10;3.00;;;;;;;8.96;100.00;98787.38;107013;1274;22598;-65
2023/04/12 07:42:40;;;;;;;4.40;3.10;;;;;;;8.97;100.00;98785.89;107097;1274;26483;-65
2023/04/12 07:45:09;;;;;;;4.10;3.00;;;;;;;8.98;100.00;98786.27;106905;1280;25456;-67
2023/04/12 07:47:43;;;;;;;4.40;3.00;;;;;;;8.98;100.00;98789.18;106923;1280;25325;-67
2023/04/12 07:50:13;;;;;;;4.50;3.10;;;;;;;9.03;100.00;98790.88;107212;1277;25333;-67
2023/04/12 07:52:42;;;;;;;4.90;3.00;;;;;;;9.05;100.00;98788.00;107320;1278;25405;-67
2023/04/12 07:55:10;;;;;;;5.00;3.00;;;;;;;9.07;100.00;98785.31;107120;1281;22525;-67
2023/04/12 07:57:40;;;;;;;5.70;2.70;;;;;;;9.09;100.00;98787.69;107165;1277;25339;-67
2023/04/12 08:00:10;;;;;;;4.60;2.50;;;;;;;9.10;100.00;98788.02;107319;1261;22621;-67
2023/04/12 08:02:41;;;;;;;3.80;2.80;;;;;;;9.10;100.00;98789.80;107248;1274;22560;-67
2023/04/12 08:05:10;;;;;;;5.90;2.70;;;;;;;9.11;100.00;98787.45;107234;1276;25373;-68
2023/04/12 08:07:45;;;;;;;5.30;2.70;;;;;;;9.13;100.00;98786.90;107277;1281;23378;-68
2023/04/12 08:10:14;;;;;;;4.60;2.70;;;;;;;9.15;100.00;98785.85;107158;1281;25333;-66
2023/04/12 08:12:43;;;;;;;4.00;2.90;;;;;;;9.18;100.00;98786.90;107387;1279;25415;-67
2023/04/12 08:15:12;;;;;;;3.90;2.60;;;;;;;9.18;100.00;98788.48;107130;1281;24262;-66
2023/04/12 08:17:43;;;;;;;2.90;2.60;;;;;;;9.20;100.00;98783.68;107225;1281;26146;-67
2023/04/12 08:20:12;;;;;;;3.90;2.60;;;;;;;9.24;100.00;98783.21;107165;1274;25362;-66
2023/04/12 08:22:44;;;;;;;8.70;3.10;;;;;;;9.27;100.00;98782.41;106964;1274;25375;-67
2023/04/12 08:25:12;;;;;;;4.40;2.70;;;;;;;9.30;100.00;98780.23;107200;1277;22554;-66
2023/04/12 08:27:41;;;;;;;4.40;2.60;;;;;;;9.35;100.00;98778.60;107016;1281;25365;-67
2023/04/12 08:30:11;;;;;;;4.00;2.80;;;;;;;9.36;100.00;98779.89;109735;1280;22338;-68
2023/04/12 08:32:40;;;;;;;6.00;2.30;;;;;;;9.41;100.00;98777.08;109874;1281;22190;-68
2023/04/12 08:35:10;;;;;;;4.50;2.50;;;;;;;9.46;100.00;98782.00;109810;1277;22198;-68
2023/04/12 08:37:39;;;;;;;6.50;2.70;;;;;;;9.50;100.00;98779.69;109859;1281;22388;-68
2023/04/12 08:40:08;;;;;;;5.20;2.30;;;;;;;9.52;100.00;98776.13;109854;1276;22181;-67
2023/04/12 08:42:36;;;;;;;4.00;2.30;;;;;;;9.58;100.00;98773.85;109802;1282;22224;-67
2023/04/12 08:45:10;;;;;;;4.00;2.40;;;;;;;9.62;100.00;98774.08;109807;1273;22334;-68
2023/04/12 08:47:40;;;;;;;3.60;2.20;;;;;;;9.67;100.00;98771.69;109805;1281;22218;-67
2023/04/12 08:50:12;;;;;;;5.30;1.90;;;;;;;9.69;100.00;98771.45;109844;1272;22221;-67
2023/04/12 08:52:41;;;;;;;3.60;2.00;;;;;;;9.72;100.00;98768.91;109933;1281;22193;-67
2023/04/12 08:55:11;;;;;;;4.00;2.30;;;;;;;9.78;100.00;98766.39;109849;1281;22283;-67
2023/04/12 08:57:40;;;;;;;3.50;2.30;;;;;;;9.83;100.00;98765.52;109866;1281;22803;-68
2023/04/12 09:00:09;;;;;;;4.40;2.20;;;;;;;9.85;100.00;98761.51;109847;1281;22396;-68
2023/04/12 09:02:45;;;;;;;3.10;1.90;;;;;;;9.84;100.00;98755.89;109849;1282;22297;-67
2023/04/12 09:05:14;;;;;;;6.70;1.90;;;;;;;9.86;100.00;98754.49;109856;1280;22321;-68
2023/04/12 09:07:43;;;;;;;3.20;1.90;;;;;;;9.88;100.00;98754.30;109868;1281;22464;-68
2023/04/12 09:10:11;;;;;;;5.00;2.20;;;;;;;9.92;100.00;98750.94;109858;1281;22423;-67
2023/04/12 09:12:48;;;;;;;3.40;1.80;;;;;;;9.98;100.00;98749.98;109751;1281;22211;-67
2023/04/12 09:15:19;;;;;;;3.10;1.90;;;;;;;10.01;100.00;98751.31;109874;1281;23322;-68
2023/04/12 09:17:48;;;;;;;3.70;1.90;;;;;;;10.03;100.00;98747.48;109912;1281;22286;-67
2023/04/12 09:20:16;;;;;;;3.00;1.70;;;;;;;10.06;100.00;98751.70;109836;1273;22214;-68
2023/04/12 09:22:45;;;;;;;3.10;2.00;;;;;;;10.09;100.00;98746.64;109888;1281;22309;-68
2023/04/12 09:25:14;;;;;;;2.80;2.10;;;;;;;10.10;100.00;98745.38;109963;1281;22420;-68
2023/04/12 09:27:50;;;;;;;3.60;1.80;;;;;;;10.10;100.00;98747.51;109898;1281;22310;-67
2023/04/12 09:30:19;;;;;;;3.40;2.10;;;;;;;10.07;100.00;98742.65;107887;1278;22717;-67
2023/04/12 09:33:11;;;;;;;3.50;1.80;;;;;;;10.03;100.00;98748.57;107108;1274;22517;-67
2023/04/12 09:35:41;;;;;;;3.00;2.00;;;;;;;9.94;100.00;98747.33;107824;1274;24218;-67
2023/04/12 09:38:10;;;;;;;4.70;3.80;;;;;;;9.91;100.00;98747.69;107207;1278;23906;-68
2023/04/12 09:40:39;;;;;;;3.40;2.10;;;;;;;9.91;100.00;98742.25;107196;1277;26487;-67
2023/04/12 09:43:08;;;;;;;4.00;2.00;;;;;;;9.93;100.00;98742.72;107122;1271;23358;-67
2023/04/12 09:45:39;;;;;;;3.40;2.10;;;;;;;9.93;100.00;98739.23;107306;1278;22558;-67
2023/04/12 09:48:08;;;;;;;3.90;2.50;;;;;;;9.89;100.00;98740.04;107219;1278;23483;-68
2023/04/12 09:50:36;;;;;;;4.20;2.30;;;;;;;9.89;100.00;98734.50;107126;1276;24312;-68
2023/04/12 09:53:20;;;;;;;3.60;2.00;;;;;;;9.91;100.00;98737.90;107200;1278;22668;-68
2023/04/12 09:55:48;;;;;;;4.90;2.00;;;;;;;9.93;100.00;98733.20;107105;1279;25365;-67
2023/04/12 09:58:18;;;;;;;2.50;1.70;;;;;;;9.94;100.00;98733.31;107205;1278;22690;-67
2023/04/12 10:00:47;;;;;;;3.90;2.20;;;;;;;9.93;100.00;98731.90;107022;1276;26281;-67
2023/04/12 10:03:17;;;;;;;4.90;2.10;;;;;;;9.94;100.00;98731.62;107272;1277;22589;-67
2023/04/12 10:05:46;;;;;;;3.50;2.20;;;;;;;9.95;100.00;98730.61;107431;1278;25388;-67
2023/04/12 10:08:15;;;;;;;3.00;2.30;;;;;;;9.96;100.00;98731.69;107261;1276;22724;-67
2023/04/12 10:10:45;;;;;;;3.50;2.40;;;;;;;9.95;100.00;98728.56;107274;1278;25364;-67
2023/04/12 10:13:14;;;;;;;4.00;2.10;;;;;;;9.96;100.00;98725.87;107226;1271;25228;-67
2023/04/12 10:15:45;;;;;;;3.10;2.10;;;;;;;9.98;100.00;98724.76;107048;1277;22525;-67
2023/04/12 10:18:16;;;;;;;3.30;2.50;;;;;;;9.99;100.00;98725.45;107141;1276;26335;-68
2023/04/12 10:20:46;;;;;;;4.50;2.30;;;;;;;9.99;100.00;98727.90;107264;1277;23875;-67
2023/04/12 10:23:20;;;;;;;3.70;2.30;;;;;;;10.03;100.00;98726.83;107149;1273;23417;-67
2023/04/12 10:25:49;;;;;;;3.40;2.20;;;;;;;10.03;100.00;98726.21;107271;1279;25248;-67
2023/04/12 10:28:20;;;;;;;3.20;2.30;;;;;;;10.04;100.00;98724.75;107619;1278;25430;-67
2023/04/12 10:34:41;;;;;;;4.20;2.40;;;;;;;10.07;100.00;98725.20;107212;1278;25343;-68
2023/04/12 10:37:09;;;;;;;5.40;2.80;;;;;;;10.00;100.00;98723.10;107257;1278;25369;-67
2023/04/12 10:39:42;;;;;;;3.50;2.60;;;;;;;9.99;100.00;98722.36;107383;1274;25491;-68
2023/04/12 10:42:17;;;;;;;6.00;2.50;;;;;;;10.00;100.00;98722.51;107467;1278;22547;-68
2023/04/12 10:45:21;;;;;;;3.50;2.50;;;;;;;10.02;100.00;98724.67;107205;1274;26599;-68
2023/04/12 10:47:50;;;;;;;4.00;2.50;;;;;;;10.06;100.00;98727.15;107193;1275;26491;-68
2023/04/12 10:50:25;;;;;;;5.90;2.70;;;;;;;10.06;100.00;98730.65;107168;1272;25314;-68
2023/04/12 10:53:12;;;;;;;4.70;2.40;;;;;;;10.11;100.00;98731.38;107124;1278;25441;-69
2023/04/12 10:55:44;;;;;;;4.80;2.90;;;;;;;10.16;100.00;98731.84;107198;1278;22529;-68
2023/04/12 10:58:48;;;;;;;4.90;3.00;;;;;;;10.19;100.00;98730.45;107187;1278;22527;-69
2023/04/12 11:01:20;;;;;;;3.60;2.50;;;;;;;10.23;100.00;98732.39;109949;1279;22193;-68
2023/04/12 11:04:08;;;;;;;4.00;2.60;;;;;;;10.27;100.00;98734.90;109994;1278;22815;-68
2023/04/12 11:06:51;;;;;;;5.40;3.00;;;;;;;10.28;100.00;98734.23;110044;1278;22972;-69
2023/04/12 11:09:41;;;;;;;5.20;2.90;;;;;;;10.27;100.00;98734.45;110054;1278;22435;-69
2023/04/12 11:12:14;;;;;;;4.30;3.10;;;;;;;10.27;100.00;98732.17;109934;1277;22209;-69
2023/04/12 11:14:45;;;;;;;4.40;3.10;;;;;;;10.30;100.00;98732.61;110163;1278;23058;-70
2023/04/12 11:17:13;;;;;;;4.20;2.70;;;;;;;10.33;100.00;98734.36;110063;1278;23197;-69
2023/04/12 11:19:45;;;;;;;4.60;3.10;;;;;;;10.33;100.00;98738.02;110052;1278;22305;-69
2023/04/12 11:22:14;;;;;;;5.90;3.60;;;;;;;10.33;100.00;98731.77;109971;1280;22431;-69
2023/04/12 11:24:43;;;;;;;4.20;3.20;;;;;;;10.36;100.00;98735.41;110146;1278;23114;-69
2023/04/12 11:27:11;;;;;;;6.40;3.60;;;;;;;10.35;100.00;98732.77;110175;1278;23121;-69
2023/04/12 11:29:39;;;;;;;6.80;4.20;;;;;;;10.36;100.00;98731.45;110096;1278;23038;-69
2023/04/12 11:32:12;;;;;;;6.30;3.50;;;;;;;10.35;100.00;98730.85;110061;1274;22719;-69
2023/04/12 11:34:42;;;;;;;5.50;3.20;;;;;;;10.36;100.00;98729.98;110010;1273;22353;-69
2023/04/12 11:37:13;;;;;;;6.10;3.30;;;;;;;10.36;100.00;98728.23;110136;1278;23082;-69
2023/04/12 11:39:42;;;;;;;5.10;2.70;;;;;;;10.35;100.00;98725.91;110063;1278;22197;-69
2023/04/12 11:42:19;;;;;;;5.50;2.60;;;;;;;10.37;100.00;98725.29;110031;1279;23027;-70
2023/04/12 11:44:47;;;;;;;5.10;3.10;;;;;;;10.39;100.00;98720.52;110157;1278;22352;-69
2023/04/12 11:47:27;;;;;;;4.00;2.70;;;;;;;10.36;100.00;98723.12;110103;1278;22295;-69